sensor_id;sensor_type;location;lat;lon;timestamp;pressure;altitude;pressure_sealevel;temperature;humidity
58239;BME280;44037;55.638;37.356;2024-01-06T00:01:51;98514.31;;;-18.11;63.55
58239;BME280;44037;55.638;37.356;2024-01-06T00:04:19;98516.09;;;-18.15;63.41
58239;BME280;44037;55.638;37.356;2024-01-06T00:06:46;98513.53;;;-18.15;63.73
58239;BME280;44037;55.638;37.356;2024-01-06T00:09:13;98516.13;;;-18.16;63.70
58239;BME280;44037;55.638;37.356;2024-01-06T00:11:40;98511.03;;;-18.19;64.23
58239;BME280;44037;55.638;37.356;2024-01-06T00:14:07;98514.44;;;-18.17;64.23
58239;BME280;44037;55.638;37.356;2024-01-06T00:16:35;98508.38;;;-18.13;64.28
58239;BME280;44037;55.638;37.356;2024-01-06T00:19:03;98516.78;;;-18.07;64.56
58239;BME280;44037;55.638;37.356;2024-01-06T00:21:31;98514.38;;;-18.14;64.21
58239;BME280;44037;55.638;37.356;2024-01-06T00:23:58;98515.88;;;-18.04;64.04
58239;BME280;44037;55.638;37.356;2024-01-06T00:26:25;98508.25;;;-18.07;64.06
58239;BME280;44037;55.638;37.356;2024-01-06T00:28:53;98507.38;;;-18.06;64.08
58239;BME280;44037;55.638;37.356;2024-01-06T00:31:21;98495.63;;;-18.18;63.77
58239;BME280;44037;55.638;37.356;2024-01-06T00:33:48;98507.50;;;-18.12;64.18
58239;BME280;44037;55.638;37.356;2024-01-06T00:36:17;98509.22;;;-18.14;63.89
58239;BME280;44037;55.638;37.356;2024-01-06T00:38:44;98504.06;;;-18.11;63.84
58239;BME280;44037;55.638;37.356;2024-01-06T00:41:11;98511.81;;;-18.14;63.93
58239;BME280;44037;55.638;37.356;2024-01-06T00:43:39;98514.31;;;-18.11;63.83
58239;BME280;44037;55.638;37.356;2024-01-06T00:46:06;98515.94;;;-18.07;63.25
58239;BME280;44037;55.638;37.356;2024-01-06T00:48:34;98516.97;;;-18.16;63.18
58239;BME280;44037;55.638;37.356;2024-01-06T00:51:01;98512.69;;;-18.17;63.08
58239;BME280;44037;55.638;37.356;2024-01-06T00:53:30;98509.19;;;-18.11;63.24
58239;BME280;44037;55.638;37.356;2024-01-06T00:55:58;98514.13;;;-18.02;63.24
58239;BME280;44037;55.638;37.356;2024-01-06T00:58:25;98525.47;;;-18.14;62.71
58239;BME280;44037;55.638;37.356;2024-01-06T01:00:52;98534.69;;;-18.03;62.94
58239;BME280;44037;55.638;37.356;2024-01-06T01:03:19;98519.38;;;-18.08;62.56
58239;BME280;44037;55.638;37.356;2024-01-06T01:05:47;98520.22;;;-18.08;62.90
58239;BME280;44037;55.638;37.356;2024-01-06T01:08:14;98540.50;;;-17.95;62.92
58239;BME280;44037;55.638;37.356;2024-01-06T01:10:43;98542.22;;;-17.97;62.32
58239;BME280;44037;55.638;37.356;2024-01-06T01:13:10;98545.75;;;-18.03;62.29
58239;BME280;44037;55.638;37.356;2024-01-06T01:15:38;98546.78;;;-18.12;62.40
58239;BME280;44037;55.638;37.356;2024-01-06T01:18:05;98538.06;;;-18.03;62.32
58239;BME280;44037;55.638;37.356;2024-01-06T01:20:32;98537.06;;;-17.94;62.36
58239;BME280;44037;55.638;37.356;2024-01-06T01:22:59;98538.91;;;-18.01;62.61
58239;BME280;44037;55.638;37.356;2024-01-06T01:25:27;98534.56;;;-17.99;62.56
58239;BME280;44037;55.638;37.356;2024-01-06T01:27:55;98534.50;;;-17.94;62.71
58239;BME280;44037;55.638;37.356;2024-01-06T01:30:22;98538.00;;;-18.00;62.65
58239;BME280;44037;55.638;37.356;2024-01-06T01:32:50;98532.00;;;-17.99;62.71
58239;BME280;44037;55.638;37.356;2024-01-06T01:35:17;98531.41;;;-18.12;62.81
58239;BME280;44037;55.638;37.356;2024-01-06T01:37:44;98521.03;;;-18.06;62.51
58239;BME280;44037;55.638;37.356;2024-01-06T01:40:12;98519.16;;;-17.96;62.62
58239;BME280;44037;55.638;37.356;2024-01-06T01:42:41;98513.94;;;-17.93;62.61
58239;BME280;44037;55.638;37.356;2024-01-06T01:45:10;98509.53;;;-17.86;62.54
58239;BME280;44037;55.638;37.356;2024-01-06T01:47:37;98516.28;;;-17.82;62.48
58239;BME280;44037;55.638;37.356;2024-01-06T01:50:06;98505.53;;;-17.99;62.35
58239;BME280;44037;55.638;37.356;2024-01-06T01:52:35;98505.50;;;-17.98;62.66
58239;BME280;44037;55.638;37.356;2024-01-06T01:55:04;98521.72;;;-17.97;62.71
58239;BME280;44037;55.638;37.356;2024-01-06T01:57:31;98515.94;;;-18.07;62.45
58239;BME280;44037;55.638;37.356;2024-01-06T02:00:00;98517.03;;;-18.19;62.84
58239;BME280;44037;55.638;37.356;2024-01-06T02:02:32;98516.28;;;-18.26;63.30
58239;BME280;44037;55.638;37.356;2024-01-06T02:04:59;98514.47;;;-18.19;63.63
58239;BME280;44037;55.638;37.356;2024-01-06T02:07:29;98519.56;;;-18.17;63.76
58239;BME280;44037;55.638;37.356;2024-01-06T02:09:56;98522.81;;;-18.09;63.62
58239;BME280;44037;55.638;37.356;2024-01-06T02:12:23;98523.66;;;-18.10;63.49
58239;BME280;44037;55.638;37.356;2024-01-06T02:14:51;98518.69;;;-18.16;63.29
58239;BME280;44037;55.638;37.356;2024-01-06T02:17:18;98523.16;;;-18.28;63.91
58239;BME280;44037;55.638;37.356;2024-01-06T02:19:48;98529.91;;;-18.24;64.14
58239;BME280;44037;55.638;37.356;2024-01-06T02:22:16;98530.69;;;-18.18;63.95
58239;BME280;44037;55.638;37.356;2024-01-06T02:24:44;98536.81;;;-18.27;63.96
58239;BME280;44037;55.638;37.356;2024-01-06T02:27:11;98534.69;;;-18.05;64.53
58239;BME280;44037;55.638;37.356;2024-01-06T02:29:38;98534.84;;;-18.13;63.69
58239;BME280;44037;55.638;37.356;2024-01-06T02:32:06;98533.78;;;-18.02;64.31
58239;BME280;44037;55.638;37.356;2024-01-06T02:34:33;98525.28;;;-18.04;63.67
58239;BME280;44037;55.638;37.356;2024-01-06T02:37:00;98530.34;;;-18.01;63.87
58239;BME280;44037;55.638;37.356;2024-01-06T02:39:29;98525.03;;;-17.91;64.09
58239;BME280;44037;55.638;37.356;2024-01-06T02:41:56;98525.94;;;-17.95;63.67
58239;BME280;44037;55.638;37.356;2024-01-06T02:44:24;98516.41;;;-17.88;63.60
58239;BME280;44037;55.638;37.356;2024-01-06T02:46:51;98521.94;;;-18.08;63.09
58239;BME280;44037;55.638;37.356;2024-01-06T02:49:20;98527.00;;;-18.03;63.31
58239;BME280;44037;55.638;37.356;2024-01-06T02:51:47;98527.69;;;-17.97;63.61
58239;BME280;44037;55.638;37.356;2024-01-06T02:54:14;98522.47;;;-17.91;63.32
58239;BME280;44037;55.638;37.356;2024-01-06T02:56:43;98519.06;;;-17.93;63.15
58239;BME280;44037;55.638;37.356;2024-01-06T02:59:10;98524.13;;;-17.90;63.37
58239;BME280;44037;55.638;37.356;2024-01-06T03:01:38;98518.28;;;-17.96;63.05
58239;BME280;44037;55.638;37.356;2024-01-06T03:04:05;98519.09;;;-17.94;63.22
58239;BME280;44037;55.638;37.356;2024-01-06T03:06:33;98518.19;;;-17.92;63.21
58239;BME280;44037;55.638;37.356;2024-01-06T03:09:00;98515.66;;;-17.93;63.20
58239;BME280;44037;55.638;37.356;2024-01-06T03:11:27;98516.38;;;-17.86;63.15
58239;BME280;44037;55.638;37.356;2024-01-06T03:13:56;98510.31;;;-17.82;63.16
58239;BME280;44037;55.638;37.356;2024-01-06T03:16:23;98523.38;;;-17.93;63.27
58239;BME280;44037;55.638;37.356;2024-01-06T03:18:50;98523.53;;;-18.01;63.45
58239;BME280;44037;55.638;37.356;2024-01-06T03:21:18;98521.75;;;-17.99;63.59
58239;BME280;44037;55.638;37.356;2024-01-06T03:23:47;98521.72;;;-17.97;63.82
58239;BME280;44037;55.638;37.356;2024-01-06T03:26:16;98526.72;;;-17.91;63.80
58239;BME280;44037;55.638;37.356;2024-01-06T03:28:44;98517.38;;;-17.94;63.57
58239;BME280;44037;55.638;37.356;2024-01-06T03:31:12;98517.34;;;-17.92;63.29
58239;BME280;44037;55.638;37.356;2024-01-06T03:33:39;98529.88;;;-17.78;63.54
58239;BME280;44037;55.638;37.356;2024-01-06T03:36:07;98521.63;;;-17.93;63.65
58239;BME280;44037;55.638;37.356;2024-01-06T03:38:35;98508.81;;;-17.93;63.98
58239;BME280;44037;55.638;37.356;2024-01-06T03:41:02;98519.69;;;-17.81;63.81
58239;BME280;44037;55.638;37.356;2024-01-06T03:43:29;98519.97;;;-17.95;63.69
58239;BME280;44037;55.638;37.356;2024-01-06T03:45:57;98511.50;;;-17.99;63.71
58239;BME280;44037;55.638;37.356;2024-01-06T03:48:27;98519.91;;;-17.91;63.83
58239;BME280;44037;55.638;37.356;2024-01-06T03:50:54;98515.78;;;-17.99;63.93
58239;BME280;44037;55.638;37.356;2024-01-06T03:53:22;98523.38;;;-17.93;63.73
58239;BME280;44037;55.638;37.356;2024-01-06T03:55:49;98519.06;;;-17.93;63.98
58239;BME280;44037;55.638;37.356;2024-01-06T03:58:16;98515.56;;;-17.88;64.12
58239;BME280;44037;55.638;37.356;2024-01-06T04:00:43;98517.06;;;-17.78;63.76
58239;BME280;44037;55.638;37.356;2024-01-06T04:03:11;98507.78;;;-17.84;63.82
58239;BME280;44037;55.638;37.356;2024-01-06T04:05:39;98512.47;;;-17.64;63.79
58239;BME280;44037;55.638;37.356;2024-01-06T04:08:07;98520.25;;;-17.67;63.44
58239;BME280;44037;55.638;37.356;2024-01-06T04:10:34;98522.69;;;-17.61;63.52
58239;BME280;44037;55.638;37.356;2024-01-06T04:13:02;98515.66;;;-17.52;63.38
58239;BME280;44037;55.638;37.356;2024-01-06T04:15:29;98521.94;;;-17.66;63.20
58239;BME280;44037;55.638;37.356;2024-01-06T04:18:01;98520.31;;;-17.70;62.97
58239;BME280;44037;55.638;37.356;2024-01-06T04:20:29;98522.00;;;-17.69;63.46
58239;BME280;44037;55.638;37.356;2024-01-06T04:22:58;98525.25;;;-17.61;63.13
58239;BME280;44037;55.638;37.356;2024-01-06T04:25:25;98532.25;;;-17.69;63.14
58239;BME280;44037;55.638;37.356;2024-01-06T04:27:53;98528.22;;;-17.81;63.28
58239;BME280;44037;55.638;37.356;2024-01-06T04:30:20;98536.88;;;-17.85;63.25
58239;BME280;44037;55.638;37.356;2024-01-06T04:32:47;98537.72;;;-17.86;63.28
58239;BME280;44037;55.638;37.356;2024-01-06T04:35:15;98538.00;;;-18.00;63.25
58239;BME280;44037;55.638;37.356;2024-01-06T04:37:42;98540.75;;;-18.09;63.50
58239;BME280;44037;55.638;37.356;2024-01-06T04:40:12;98537.50;;;-18.17;63.75
58239;BME280;44037;55.638;37.356;2024-01-06T04:42:39;98537.50;;;-18.17;63.76
58239;BME280;44037;55.638;37.356;2024-01-06T04:45:07;98526.38;;;-18.18;64.11
58239;BME280;44037;55.638;37.356;2024-01-06T04:47:35;98535.63;;;-18.09;64.06
58239;BME280;44037;55.638;37.356;2024-01-06T04:50:02;98542.44;;;-18.08;64.11
58239;BME280;44037;55.638;37.356;2024-01-06T04:52:30;98538.97;;;-18.06;63.87
58239;BME280;44037;55.638;37.356;2024-01-06T04:54:57;98548.22;;;-17.97;63.76
58239;BME280;44037;55.638;37.356;2024-01-06T04:57:26;98547.31;;;-17.94;63.77
58239;BME280;44037;55.638;37.356;2024-01-06T04:59:53;98556.75;;;-17.96;63.25
58239;BME280;44037;55.638;37.356;2024-01-06T05:02:20;98560.88;;;-17.89;63.51
58239;BME280;44037;55.638;37.356;2024-01-06T05:04:47;98554.13;;;-17.93;63.43
58239;BME280;44037;55.638;37.356;2024-01-06T05:07:15;98552.47;;;-17.97;63.32
58239;BME280;44037;55.638;37.356;2024-01-06T05:09:42;98540.72;;;-18.06;63.49
58239;BME280;44037;55.638;37.356;2024-01-06T05:12:09;98549.81;;;-17.91;63.41
58239;BME280;44037;55.638;37.356;2024-01-06T05:14:38;98557.50;;;-17.91;63.49
58239;BME280;44037;55.638;37.356;2024-01-06T05:17:05;98550.50;;;-17.83;63.18
58239;BME280;44037;55.638;37.356;2024-01-06T05:19:33;98547.91;;;-17.81;63.11
58239;BME280;44037;55.638;37.356;2024-01-06T05:22:00;98542.00;;;-17.85;62.90
58239;BME280;44037;55.638;37.356;2024-01-06T05:24:27;98536.81;;;-17.83;63.16
58239;BME280;44037;55.638;37.356;2024-01-06T05:26:54;98541.78;;;-17.76;62.90
58239;BME280;44037;55.638;37.356;2024-01-06T05:29:22;98534.34;;;-17.86;62.89
58239;BME280;44037;55.638;37.356;2024-01-06T05:31:53;98539.47;;;-17.86;63.27
58239;BME280;44037;55.638;37.356;2024-01-06T05:34:20;98536.16;;;-17.92;63.02
58239;BME280;44037;55.638;37.356;2024-01-06T05:36:47;98542.97;;;-17.91;63.37
58239;BME280;44037;55.638;37.356;2024-01-06T05:39:15;98545.47;;;-17.87;63.08
58239;BME280;44037;55.638;37.356;2024-01-06T05:41:42;98545.44;;;-17.86;62.87
58239;BME280;44037;55.638;37.356;2024-01-06T05:44:09;98565.22;;;-17.93;63.15
58239;BME280;44037;55.638;37.356;2024-01-06T05:46:37;98562.72;;;-17.97;63.29
58239;BME280;44037;55.638;37.356;2024-01-06T05:49:05;98571.19;;;-17.91;63.19
58239;BME280;44037;55.638;37.356;2024-01-06T05:51:32;98568.50;;;-17.86;63.17
58239;BME280;44037;55.638;37.356;2024-01-06T05:54:00;98583.25;;;-17.96;63.11
58239;BME280;44037;55.638;37.356;2024-01-06T05:56:28;98581.09;;;-18.20;63.27
58239;BME280;44037;55.638;37.356;2024-01-06T05:58:56;98584.44;;;-18.15;63.65
58239;BME280;44037;55.638;37.356;2024-01-06T06:01:23;98581.00;;;-18.14;63.26
58239;BME280;44037;55.638;37.356;2024-01-06T06:03:50;98585.19;;;-18.10;63.31
58239;BME280;44037;55.638;37.356;2024-01-06T06:06:19;98584.38;;;-18.11;63.54
58239;BME280;44037;55.638;37.356;2024-01-06T06:08:46;98587.94;;;-18.19;63.81
58239;BME280;44037;55.638;37.356;2024-01-06T06:11:14;98581.88;;;-18.14;63.85
58239;BME280;44037;55.638;37.356;2024-01-06T06:13:42;98580.06;;;-18.09;63.95
58239;BME280;44037;55.638;37.356;2024-01-06T06:16:10;98580.91;;;-18.08;63.61
58239;BME280;44037;55.638;37.356;2024-01-06T06:18:38;98591.84;;;-17.98;63.70
58239;BME280;44037;55.638;37.356;2024-01-06T06:21:06;98587.53;;;-17.98;63.65
58239;BME280;44037;55.638;37.356;2024-01-06T06:23:34;98592.59;;;-17.95;63.84
58239;BME280;44037;55.638;37.356;2024-01-06T06:26:05;98593.34;;;-17.90;63.77
58239;BME280;44037;55.638;37.356;2024-01-06T06:28:32;98589.88;;;-17.85;63.43
58239;BME280;44037;55.638;37.356;2024-01-06T06:31:00;98594.81;;;-17.76;63.36
58239;BME280;44037;55.638;37.356;2024-01-06T06:33:27;98605.72;;;-17.65;63.05
58239;BME280;44037;55.638;37.356;2024-01-06T06:35:55;98604.97;;;-17.71;62.93
58239;BME280;44037;55.638;37.356;2024-01-06T06:38:22;98599.84;;;-17.70;63.20
58239;BME280;44037;55.638;37.356;2024-01-06T06:40:51;98596.28;;;-17.64;62.67
58239;BME280;44037;55.638;37.356;2024-01-06T06:43:18;98603.31;;;-17.73;62.68
58239;BME280;44037;55.638;37.356;2024-01-06T06:45:45;98595.59;;;-17.71;62.95
58239;BME280;44037;55.638;37.356;2024-01-06T06:48:13;98602.38;;;-17.68;62.65
58239;BME280;44037;55.638;37.356;2024-01-06T06:50:40;98599.66;;;-17.61;62.57
58239;BME280;44037;55.638;37.356;2024-01-06T06:53:08;98602.72;;;-17.45;62.57
58239;BME280;44037;55.638;37.356;2024-01-06T06:55:35;98605.16;;;-17.37;62.45
58239;BME280;44037;55.638;37.356;2024-01-06T06:58:04;98603.81;;;-17.55;62.44
58239;BME280;44037;55.638;37.356;2024-01-06T07:00:32;98599.38;;;-17.48;62.43
58239;BME280;44037;55.638;37.356;2024-01-06T07:03:00;98605.34;;;-17.46;62.50
58239;BME280;44037;55.638;37.356;2024-01-06T07:05:27;98606.59;;;-17.27;62.55
58239;BME280;44037;55.638;37.356;2024-01-06T07:07:55;98594.78;;;-17.32;62.37
58239;BME280;44037;55.638;37.356;2024-01-06T07:10:22;98590.78;;;-17.44;62.29
58239;BME280;44037;55.638;37.356;2024-01-06T07:12:49;98594.50;;;-17.21;62.43
58239;BME280;44037;55.638;37.356;2024-01-06T07:15:18;98583.81;;;-17.03;62.04
58239;BME280;44037;55.638;37.356;2024-01-06T07:17:45;98594.03;;;-17.00;61.99
58239;BME280;44037;55.638;37.356;2024-01-06T07:20:13;98590.25;;;-16.85;61.92
58239;BME280;44037;55.638;37.356;2024-01-06T07:22:40;98602.53;;;-16.96;61.41
58239;BME280;44037;55.638;37.356;2024-01-06T07:25:08;98608.59;;;-16.99;61.71
58239;BME280;44037;55.638;37.356;2024-01-06T07:27:35;98604.03;;;-16.87;61.64
58239;BME280;44037;55.638;37.356;2024-01-06T07:30:03;98608.53;;;-16.97;61.30
58239;BME280;44037;55.638;37.356;2024-01-06T07:32:33;98593.91;;;-16.94;61.47
58239;BME280;44037;55.638;37.356;2024-01-06T07:35:00;98611.72;;;-16.86;61.20
58239;BME280;44037;55.638;37.356;2024-01-06T07:37:31;98611.38;;;-16.70;61.27
58239;BME280;44037;55.638;37.356;2024-01-06T07:39:58;98604.34;;;-16.64;61.11
58239;BME280;44037;55.638;37.356;2024-01-06T07:42:26;98593.78;;;-16.53;61.05
58239;BME280;44037;55.638;37.356;2024-01-06T07:44:53;98590.88;;;-16.39;60.93
58239;BME280;44037;55.638;37.356;2024-01-06T07:47:20;98594.44;;;-16.43;60.82
58239;BME280;44037;55.638;37.356;2024-01-06T07:49:49;98582.09;;;-16.30;61.45
58239;BME280;44037;55.638;37.356;2024-01-06T07:52:16;98585.13;;;-16.49;60.92
58239;BME280;44037;55.638;37.356;2024-01-06T07:54:44;98589.19;;;-16.40;61.11
58239;BME280;44037;55.638;37.356;2024-01-06T07:57:11;98585.44;;;-16.27;61.03
58239;BME280;44037;55.638;37.356;2024-01-06T07:59:38;98591.63;;;-16.34;60.70
58239;BME280;44037;55.638;37.356;2024-01-06T08:02:06;98587.13;;;-16.26;61.20
58239;BME280;44037;55.638;37.356;2024-01-06T08:04:33;98585.44;;;-16.27;61.11
58239;BME280;44037;55.638;37.356;2024-01-06T08:07:02;98584.88;;;-16.07;61.13
58239;BME280;44037;55.638;37.356;2024-01-06T08:09:30;98584.69;;;-15.99;61.02
58239;BME280;44037;55.638;37.356;2024-01-06T08:11:57;98597.63;;;-16.02;60.74
58239;BME280;44037;55.638;37.356;2024-01-06T08:14:24;98588.19;;;-16.01;61.22
58239;BME280;44037;55.638;37.356;2024-01-06T08:16:51;98587.81;;;-15.87;61.13
58239;BME280;44037;55.638;37.356;2024-01-06T08:19:19;98591.94;;;-15.82;61.16
58239;BME280;44037;55.638;37.356;2024-01-06T08:21:46;98589.16;;;-15.74;60.84
58239;BME280;44037;55.638;37.356;2024-01-06T08:24:15;98592.38;;;-15.66;60.67
58239;BME280;44037;55.638;37.356;2024-01-06T08:26:43;98581.50;;;-15.46;60.68
58239;BME280;44037;55.638;37.356;2024-01-06T08:29:10;98580.88;;;-15.54;60.34
58239;BME280;44037;55.638;37.356;2024-01-06T08:31:38;98575.59;;;-15.49;60.40
58239;BME280;44037;55.638;37.356;2024-01-06T08:34:05;98577.16;;;-15.44;60.48
58239;BME280;44037;55.638;37.356;2024-01-06T08:36:34;98569.34;;;-15.41;60.57
58239;BME280;44037;55.638;37.356;2024-01-06T08:39:01;98577.69;;;-15.32;60.38
58239;BME280;44037;55.638;37.356;2024-01-06T08:41:30;98575.66;;;-15.22;60.43
58239;BME280;44037;55.638;37.356;2024-01-06T08:43:57;98582.25;;;-15.42;60.18
58239;BME280;44037;55.638;37.356;2024-01-06T08:46:25;98584.00;;;-15.43;60.15
58239;BME280;44037;55.638;37.356;2024-01-06T08:48:52;98583.13;;;-15.43;60.75
58239;BME280;44037;55.638;37.356;2024-01-06T08:51:19;98584.22;;;-15.20;60.52
58239;BME280;44037;55.638;37.356;2024-01-06T08:53:47;98581.63;;;-15.20;60.49
58239;BME280;44037;55.638;37.356;2024-01-06T08:56:14;98577.00;;;-15.09;60.32
58239;BME280;44037;55.638;37.356;2024-01-06T08:58:45;98577.84;;;-15.09;60.23
58239;BME280;44037;55.638;37.356;2024-01-06T09:01:13;98564.19;;;-15.12;60.15
58239;BME280;44037;55.638;37.356;2024-01-06T09:03:40;98570.91;;;-15.06;60.25
58239;BME280;44037;55.638;37.356;2024-01-06T09:06:08;98565.38;;;-14.94;60.39
58239;BME280;44037;55.638;37.356;2024-01-06T09:08:35;98557.69;;;-14.96;60.34
58239;BME280;44037;55.638;37.356;2024-01-06T09:11:02;98562.59;;;-14.88;60.40
58239;BME280;44037;55.638;37.356;2024-01-06T09:13:30;98568.09;;;-14.99;60.11
58239;BME280;44037;55.638;37.356;2024-01-06T09:15:59;98567.00;;;-14.92;60.31
58239;BME280;44037;55.638;37.356;2024-01-06T09:18:27;98559.22;;;-14.90;59.99
58239;BME280;44037;55.638;37.356;2024-01-06T09:20:54;98557.56;;;-14.91;60.05
58239;BME280;44037;55.638;37.356;2024-01-06T09:23:22;98547.69;;;-14.78;60.27
58239;BME280;44037;55.638;37.356;2024-01-06T09:25:50;98551.66;;;-14.69;60.01
58239;BME280;44037;55.638;37.356;2024-01-06T09:28:18;98553.53;;;-14.73;59.75
58239;BME280;44037;55.638;37.356;2024-01-06T09:30:47;98548.00;;;-14.62;59.61
58239;BME280;44037;55.638;37.356;2024-01-06T09:33:16;98535.56;;;-14.49;59.71
58239;BME280;44037;55.638;37.356;2024-01-06T09:35:43;98529.31;;;-14.42;59.56
58239;BME280;44037;55.638;37.356;2024-01-06T09:38:11;98539.63;;;-14.42;59.35
58239;BME280;44037;55.638;37.356;2024-01-06T09:40:42;98544.81;;;-14.44;59.58
58239;BME280;44037;55.638;37.356;2024-01-06T09:43:10;98545.69;;;-14.43;59.41
58239;BME280;44037;55.638;37.356;2024-01-06T09:45:38;98541.16;;;-14.36;59.38
58239;BME280;44037;55.638;37.356;2024-01-06T09:48:10;98541.66;;;-14.52;59.57
58239;BME280;44037;55.638;37.356;2024-01-06T09:50:40;98549.03;;;-14.41;59.66
58239;BME280;44037;55.638;37.356;2024-01-06T09:53:10;98538.50;;;-14.35;59.73
58239;BME280;44037;55.638;37.356;2024-01-06T09:55:38;98539.13;;;-14.28;59.63
58239;BME280;44037;55.638;37.356;2024-01-06T09:58:06;98537.75;;;-14.38;59.23
58239;BME280;44037;55.638;37.356;2024-01-06T10:00:33;98528.81;;;-14.53;59.69
58239;BME280;44037;55.638;37.356;2024-01-06T10:03:00;98534.16;;;-14.33;59.90
58239;BME280;44037;55.638;37.356;2024-01-06T10:05:27;98530.94;;;-14.39;59.99
58239;BME280;44037;55.638;37.356;2024-01-06T10:07:56;98526.50;;;-14.36;59.94
58239;BME280;44037;55.638;37.356;2024-01-06T10:10:23;98534.84;;;-14.28;59.46
58239;BME280;44037;55.638;37.356;2024-01-06T10:12:53;98529.78;;;-14.31;60.02
58239;BME280;44037;55.638;37.356;2024-01-06T10:15:22;98529.88;;;-14.34;60.14
58239;BME280;44037;55.638;37.356;2024-01-06T10:17:49;98522.78;;;-14.27;60.19
58239;BME280;44037;55.638;37.356;2024-01-06T10:20:17;98525.16;;;-14.21;60.01
58239;BME280;44037;55.638;37.356;2024-01-06T10:22:45;98526.84;;;-14.20;59.76
58239;BME280;44037;55.638;37.356;2024-01-06T10:25:15;98516.53;;;-14.20;60.17
58239;BME280;44037;55.638;37.356;2024-01-06T10:27:42;98518.28;;;-14.22;60.26
58239;BME280;44037;55.638;37.356;2024-01-06T10:30:10;98513.75;;;-14.15;60.68
58239;BME280;44037;55.638;37.356;2024-01-06T10:32:39;98511.34;;;-14.20;60.55
58239;BME280;44037;55.638;37.356;2024-01-06T10:35:07;98501.44;;;-14.32;60.89
58239;BME280;44037;55.638;37.356;2024-01-06T10:37:35;98504.09;;;-14.34;61.08
58239;BME280;44037;55.638;37.356;2024-01-06T10:40:08;98499.50;;;-14.26;60.96
58239;BME280;44037;55.638;37.356;2024-01-06T10:42:38;98494.94;;;-14.17;61.56
58239;BME280;44037;55.638;37.356;2024-01-06T10:45:07;98497.97;;;-14.06;61.35
58239;BME280;44037;55.638;37.356;2024-01-06T10:47:36;98501.53;;;-14.10;61.17
58239;BME280;44037;55.638;37.356;2024-01-06T10:50:04;98495.34;;;-14.04;61.24
58239;BME280;44037;55.638;37.356;2024-01-06T10:52:32;98494.44;;;-14.03;61.14
58239;BME280;44037;55.638;37.356;2024-01-06T10:55:01;98489.38;;;-14.06;61.19
58239;BME280;44037;55.638;37.356;2024-01-06T10:57:29;98482.50;;;-14.06;61.24
58239;BME280;44037;55.638;37.356;2024-01-06T11:00:00;98470.56;;;-14.10;61.09
58239;BME280;44037;55.638;37.356;2024-01-06T11:02:27;98468.91;;;-14.11;61.16
58239;BME280;44037;55.638;37.356;2024-01-06T11:04:54;98475.66;;;-14.07;61.37
58239;BME280;44037;55.638;37.356;2024-01-06T11:07:23;98481.34;;;-13.99;61.60
58239;BME280;44037;55.638;37.356;2024-01-06T11:09:56;98487.53;;;-14.03;61.88
58239;BME280;44037;55.638;37.356;2024-01-06T11:12:24;98485.97;;;-14.07;61.72
58239;BME280;44037;55.638;37.356;2024-01-06T11:14:52;98484.16;;;-14.05;61.88
58239;BME280;44037;55.638;37.356;2024-01-06T11:17:52;98498.53;;;-13.98;61.99
58239;BME280;44037;55.638;37.356;2024-01-06T11:20:21;98497.44;;;-13.90;61.84
58239;BME280;44037;55.638;37.356;2024-01-06T11:22:49;98499.66;;;-13.81;62.03
58239;BME280;44037;55.638;37.356;2024-01-06T11:25:18;98490.72;;;-13.96;62.05
58239;BME280;44037;55.638;37.356;2024-01-06T11:27:47;98484.41;;;-14.11;62.02
58239;BME280;44037;55.638;37.356;2024-01-06T11:30:20;98495.03;;;-14.20;62.44
58239;BME280;44037;55.638;37.356;2024-01-06T11:32:47;98492.63;;;-14.25;62.94
58239;BME280;44037;55.638;37.356;2024-01-06T11:35:16;98498.41;;;-14.18;62.67
58239;BME280;44037;55.638;37.356;2024-01-06T11:37:55;98510.09;;;-14.08;62.86
58239;BME280;44037;55.638;37.356;2024-01-06T11:40:25;98501.78;;;-13.93;62.46
58239;BME280;44037;55.638;37.356;2024-01-06T11:42:57;98505.38;;;-13.97;62.59
58239;BME280;44037;55.638;37.356;2024-01-06T11:45:25;98511.22;;;-13.92;62.31
58239;BME280;44037;55.638;37.356;2024-01-06T11:47:57;98513.66;;;-14.12;62.72
58239;BME280;44037;55.638;37.356;2024-01-06T11:50:27;98507.56;;;-14.10;62.86
58239;BME280;44037;55.638;37.356;2024-01-06T11:52:55;98516.47;;;-14.18;62.54
58239;BME280;44037;55.638;37.356;2024-01-06T11:55:23;98508.78;;;-14.20;62.89
58239;BME280;44037;55.638;37.356;2024-01-06T11:57:50;98507.38;;;-14.05;63.06
58239;BME280;44037;55.638;37.356;2024-01-06T12:00:18;98501.66;;;-13.89;62.69
58239;BME280;44037;55.638;37.356;2024-01-06T12:02:45;98500.84;;;-13.90;62.62
58239;BME280;44037;55.638;37.356;2024-01-06T12:05:13;98495.56;;;-13.87;62.63
58239;BME280;44037;55.638;37.356;2024-01-06T12:07:44;98506.06;;;-13.92;63.05
58239;BME280;44037;55.638;37.356;2024-01-06T12:10:20;98503.53;;;-13.93;63.25
58239;BME280;44037;55.638;37.356;2024-01-06T12:12:55;98506.88;;;-13.91;63.26
58239;BME280;44037;55.638;37.356;2024-01-06T12:15:24;98504.31;;;-13.91;63.21
58239;BME280;44037;55.638;37.356;2024-01-06T12:17:52;98516.09;;;-13.84;63.53
58239;BME280;44037;55.638;37.356;2024-01-06T12:20:19;98511.22;;;-13.92;63.27
58239;BME280;44037;55.638;37.356;2024-01-06T12:22:50;98522.31;;;-13.89;63.59
58239;BME280;44037;55.638;37.356;2024-01-06T12:25:18;98523.00;;;-13.84;63.73
58239;BME280;44037;55.638;37.356;2024-01-06T12:27:46;98515.22;;;-13.83;63.82
58239;BME280;44037;55.638;37.356;2024-01-06T12:30:13;98521.41;;;-13.88;63.84
58239;BME280;44037;55.638;37.356;2024-01-06T12:32:45;98525.69;;;-13.87;63.99
58239;BME280;44037;55.638;37.356;2024-01-06T12:35:13;98521.75;;;-13.98;64.20
58239;BME280;44037;55.638;37.356;2024-01-06T12:37:41;98530.38;;;-13.99;64.41
58239;BME280;44037;55.638;37.356;2024-01-06T12:40:12;98528.41;;;-13.90;64.33
58239;BME280;44037;55.638;37.356;2024-01-06T12:42:40;98528.81;;;-14.03;64.36
58239;BME280;44037;55.638;37.356;2024-01-06T12:45:08;98536.56;;;-14.03;64.51